Grand Forks, ND

7:33 AM CDT on October 02, 2014 (GMT -0500)
KNDGRAND8 | Change Station
CLOSE
Current Station
Personal Weather Station
Location: Grand Forks, ND
Elevation: 830 ft
Nearby Weather Stations

Elev 830 ft 47.94 °N, 97.06 °W | Updated 2 seconds ago

Overcast
Overcast
50.0 °F
Feels Like 50.0 °F
N
1.9
Wind Variable Wind from East
Gusts 4.0 mph

Today
High -- | Low -- °F
--% Chance of Precip.
Yesterday
High -- | Low -- °F
Precip. -- in
7:28 AM 7:05 PM
First Quarter, 58% visible
Pressure 29.82 in
Visibility 10.0 miles
Clouds Overcast 19000 ft
Dew Point 47 °F
Humidity 91%
Rainfall 0.00 in
Snow Depth Not available.
UV 0 out of 12
Pollen 2.00 out of 12
Air Quality Not available.
Flu Activity Not available.
METAR KGFK 021153Z 24003KT 10SM OVC190 09/08 A2981 RMK AO2 SLP097 T00940083 10139 20083 53005

More Conditions Fewer Conditions

Pressure 29.82 in
Visibility 10.0 miles
Clouds Overcast 19000 ft
Dew Point 47 °F
Humidity 91%
Rainfall 0.00 in
Snow Depth Not available.
UV 0 out of 12
Pollen 2.00 out of 12
Air Quality Not available.
Flu Activity Not available.
METAR KGFK 021153Z 24003KT 10SM OVC190 09/08 A2981 RMK AO2 SLP097 T00940083 10139 20083 53005

More Conditions Fewer Conditions

10-Day Weather Forecast

Almanac

Astronomy

Oct. 02, 2014 Rise Set
Actual Time 7:28 AM CDT 7:05 PM CDT
Civil Twilight 6:57 AM CDT 7:36 PM CDT
Nautical Twilight 6:21 AM CDT 8:12 PM CDT
Astronomical Twilight 5:45 AM CDT 8:48 PM CDT
Moon 3:35 PM CDT 12:22 AM CDT
Length of Visible Light 12h 38m
Length of Day
11h 36m
Tomorrow will be 3m 27s shorter.
First Quarter, 58% of the Moon is Illuminated
Today
First Quarter
Oct 8
Full
Oct 15
Last Quarter
Oct 23
New
Oct 30
First Quarter

Today's Extremes

State Highs State Lows

Community

WunderPhotos

Upload Photos

1,758,223 photos uploaded!

WunderBlogs® & News

Nearby

Snow Depth

Station Depth Elevation
No new snow has been reported.

Earthquake Activity

City Distance Mag. Time & Date
No recent earthquake activity has been reported nearby.
Minimum magnitude displayed is 2.5.

Coastal Water Temperatures

Place Temperature
No Stations Reporting

Nearby Weather Stations